Time;durP1;ratioP1;P1;durP2;ratioP2;P2;SDS_P1;SDS_P2;PMS_P1;PMS_P2;Temp;Humidity;BMP_temperature;BMP_pressure;BME280_temperature;BME280_humidity;BME280_pressure;Samples;Min_cycle;Max_cycle;Signal;HPM_P1;HPM_P2
2023/04/25 00:01:17;;;;;;;3.10;1.55;;;9.50;79.50;;;;;;5008458;28;20038;-72
2023/04/25 00:03:43;;;;;;;1.45;0.90;;;9.50;79.50;;;;;;5007764;28;20501;-72
2023/04/25 00:06:09;;;;;;;0.70;0.70;;;9.50;79.50;;;;;;5009646;28;20052;-71
2023/04/25 00:08:34;;;;;;;3.03;1.50;;;9.40;79.60;;;;;;5007371;28;20474;-72
2023/04/25 00:11:01;;;;;;;1.48;0.90;;;9.40;79.70;;;;;;4974613;28;20076;-72
2023/04/25 00:13:26;;;;;;;3.40;1.25;;;9.40;79.70;;;;;;4987652;28;20501;-72
2023/04/25 00:15:59;;;;;;;1.52;0.88;;;9.40;79.70;;;;;;4992059;28;20033;-72
2023/04/25 00:18:28;;;;;;;2.80;1.20;;;9.30;79.50;;;;;;4990309;28;20030;-73
2023/04/25 00:20:55;;;;;;;2.38;1.35;;;9.30;79.60;;;;;;5009532;28;20553;-72
2023/04/25 00:23:21;;;;;;;1.73;0.88;;;9.20;79.50;;;;;;5006297;28;20421;-72
2023/04/25 00:25:48;;;;;;;1.15;0.95;;;9.20;79.50;;;;;;5008812;28;20033;-71
2023/04/25 00:28:15;;;;;;;4.10;1.13;;;9.20;79.50;;;;;;4990111;28;20543;-71
2023/04/25 00:30:41;;;;;;;2.55;1.23;;;9.20;79.50;;;;;;4991957;28;20037;-70
2023/04/25 00:33:06;;;;;;;4.43;1.52;;;9.10;80.00;;;;;;5004643;28;20124;-72
2023/04/25 00:35:33;;;;;;;2.40;1.02;;;9.10;79.40;;;;;;4989725;28;20030;-72
2023/04/25 00:37:58;;;;;;;3.67;1.45;;;9.10;79.40;;;;;;4988654;28;20033;-72
2023/04/25 00:40:24;;;;;;;5.43;1.17;;;9.10;79.40;;;;;;5008059;28;20428;-72
2023/04/25 00:42:53;;;;;;;3.78;1.35;;;9.00;79.30;;;;;;5003947;28;20109;-72
2023/04/25 00:45:19;;;;;;;2.22;0.80;;;9.00;79.40;;;;;;5007761;28;20389;-71
2023/04/25 00:47:45;;;;;;;3.08;1.70;;;9.00;79.40;;;;;;5007480;28;20030;-71
2023/04/25 00:50:12;;;;;;;1.63;1.10;;;8.90;79.30;;;;;;4990045;28;20022;-71
2023/04/25 00:52:43;;;;;;;2.65;1.00;;;8.90;79.30;;;;;;4989100;28;20384;-71
2023/04/25 00:55:11;;;;;;;2.97;1.33;;;8.90;79.20;;;;;;5005813;28;20025;-68
2023/04/25 00:57:37;;;;;;;3.88;1.52;;;8.90;79.20;;;;;;4999048;28;20022;-67
2023/04/25 01:00:06;;;;;;;8.13;1.67;;;8.90;79.20;;;;;;5007506;28;20057;-66
2023/04/25 01:02:34;;;;;;;4.05;1.58;;;8.90;79.20;;;;;;5006704;28;20028;-70
2023/04/25 01:04:59;;;;;;;2.38;1.20;;;8.90;79.00;;;;;;5001785;28;20030;-70
2023/04/25 01:07:26;;;;;;;1.38;0.80;;;8.90;78.90;;;;;;5006242;28;20037;-70
2023/04/25 01:09:52;;;;;;;6.53;1.30;;;8.90;78.90;;;;;;5002694;28;20168;-69
2023/04/25 01:12:18;;;;;;;3.13;1.20;;;9.00;78.90;;;;;;5005460;28;20125;-70
2023/04/25 01:14:44;;;;;;;5.72;1.20;;;8.90;78.80;;;;;;5001602;28;20471;-70
2023/04/25 01:17:10;;;;;;;2.67;1.20;;;8.90;78.80;;;;;;4988633;28;20022;-71
2023/04/25 01:19:36;;;;;;;1.58;1.10;;;8.90;78.80;;;;;;4979060;28;20497;-71
2023/04/25 01:22:03;;;;;;;2.28;0.98;;;8.90;78.70;;;;;;4990318;28;20034;-70
2023/04/25 01:24:30;;;;;;;1.50;1.08;;;8.80;78.70;;;;;;4998779;28;20080;-70
2023/04/25 01:26:57;;;;;;;3.65;0.77;;;8.80;78.70;;;;;;5008294;28;20030;-72
2023/04/25 01:29:24;;;;;;;2.45;0.93;;;8.80;78.80;;;;;;5007020;28;20434;-72
2023/04/25 01:31:52;;;;;;;4.35;1.35;;;8.70;78.70;;;;;;5006988;28;20681;-71
2023/04/25 01:34:18;;;;;;;1.35;0.90;;;8.70;78.70;;;;;;5005690;28;20068;-72
2023/04/25 01:36:44;;;;;;;2.60;0.98;;;8.80;78.90;;;;;;5007380;28;20018;-72
2023/04/25 01:39:10;;;;;;;1.55;1.17;;;8.80;78.80;;;;;;4992028;28;20062;-72
2023/04/25 01:41:36;;;;;;;2.45;1.48;;;8.80;78.80;;;;;;5008456;28;20061;-72
2023/04/25 01:44:03;;;;;;;2.00;1.25;;;8.80;79.10;;;;;;5009484;28;20058;-68
2023/04/25 01:46:30;;;;;;;7.32;1.55;;;8.80;79.10;;;;;;5008585;28;20592;-69
2023/04/25 01:48:56;;;;;;;6.97;1.30;;;8.80;79.10;;;;;;5000576;28;20128;-71
2023/04/25 01:51:22;;;;;;;1.60;1.00;;;8.80;79.00;;;;;;5006593;28;20633;-71
2023/04/25 01:53:48;;;;;;;1.83;1.52;;;8.90;79.00;;;;;;5002967;28;20047;-70
2023/04/25 01:56:13;;;;;;;7.90;1.30;;;8.90;79.00;;;;;;5003256;28;20113;-70
2023/04/25 01:58:39;;;;;;;7.65;1.50;;;8.90;79.00;;;;;;4974213;28;20397;-69
2023/04/25 02:01:05;;;;;;;10.05;1.85;;;8.90;79.00;;;;;;4990133;28;20029;-69
2023/04/25 02:03:31;;;;;;;3.55;1.88;;;8.90;79.00;;;;;;4993360;28;20097;-71
2023/04/25 02:05:57;;;;;;;2.78;1.50;;;8.80;78.90;;;;;;5007717;28;20033;-71
2023/04/25 02:08:23;;;;;;;5.57;1.13;;;8.80;79.00;;;;;;5011019;28;20461;-69
2023/04/25 02:10:48;;;;;;;6.13;1.45;;;8.80;79.20;;;;;;4992851;28;20026;-70
2023/04/25 02:13:14;;;;;;;2.67;1.15;;;8.70;79.20;;;;;;4991156;28;20038;-69
2023/04/25 02:15:41;;;;;;;1.45;0.95;;;8.70;79.20;;;;;;5007953;28;20464;-71
2023/04/25 02:18:06;;;;;;;1.65;1.13;;;8.70;79.20;;;;;;4992615;28;20030;-69
2023/04/25 02:20:33;;;;;;;2.17;1.33;;;8.80;79.10;;;;;;5009934;28;20034;-69
2023/04/25 02:22:58;;;;;;;4.15;1.20;;;8.70;78.90;;;;;;5011932;28;20029;-69
2023/04/25 02:25:24;;;;;;;2.50;1.42;;;8.70;78.90;;;;;;4992848;28;20038;-69
2023/04/25 02:27:51;;;;;;;9.30;1.50;;;8.70;78.90;;;;;;5011113;28;20109;-69
2023/04/25 02:30:17;;;;;;;7.78;1.63;;;8.70;78.90;;;;;;5010459;28;20022;-69
2023/04/25 02:32:42;;;;;;;5.70;1.40;;;8.70;78.90;;;;;;4977255;28;20469;-70
2023/04/25 02:35:08;;;;;;;3.13;1.77;;;8.70;78.90;;;;;;5009615;28;20022;-70
2023/04/25 02:37:36;;;;;;;3.00;0.90;;;8.70;79.00;;;;;;4990952;28;20053;-70
2023/04/25 02:40:02;;;;;;;11.38;1.60;;;8.70;79.00;;;;;;5008433;28;20014;-70
2023/04/25 02:42:28;;;;;;;4.13;1.38;;;8.70;79.00;;;;;;5011299;28;20026;-70
2023/04/25 02:44:54;;;;;;;2.63;1.42;;;8.70;79.00;;;;;;5010696;28;20041;-70
2023/04/25 02:47:20;;;;;;;5.55;1.50;;;8.70;79.00;;;;;;5009802;28;20149;-70
2023/04/25 02:49:46;;;;;;;1.55;1.17;;;8.70;78.90;;;;;;5010830;28;20385;-70
2023/04/25 02:52:12;;;;;;;5.55;1.30;;;8.60;78.90;;;;;;4992644;28;20041;-70
2023/04/25 02:54:39;;;;;;;1.70;1.33;;;8.60;78.80;;;;;;4990824;28;20045;-70
2023/04/25 02:57:04;;;;;;;2.45;0.88;;;8.60;78.80;;;;;;5009742;28;20381;-72
2023/04/25 02:59:30;;;;;;;4.82;1.40;;;8.50;78.80;;;;;;5005177;28;20032;-71
2023/04/25 03:01:56;;;;;;;4.05;1.30;;;8.40;78.90;;;;;;5006632;28;20034;-71
2023/04/25 03:04:23;;;;;;;2.38;1.38;;;8.40;78.90;;;;;;4969511;28;20477;-71
2023/04/25 03:06:49;;;;;;;5.93;1.45;;;8.40;78.90;;;;;;5009983;28;20143;-71
2023/04/25 03:09:15;;;;;;;4.40;1.80;;;8.40;78.80;;;;;;5009890;28;20080;-71
2023/04/25 03:11:41;;;;;;;2.65;1.35;;;8.30;78.70;;;;;;5001607;28;20042;-72
2023/04/25 03:14:07;;;;;;;4.97;1.67;;;8.30;78.60;;;;;;5008942;28;20033;-70
2023/04/25 03:16:33;;;;;;;2.97;1.60;;;8.30;78.60;;;;;;5003213;28;20038;-70
2023/04/25 03:18:59;;;;;;;4.13;1.63;;;8.30;78.60;;;;;;4992044;28;20018;-70
2023/04/25 03:21:26;;;;;;;3.03;1.58;;;8.30;78.50;;;;;;5006630;28;20397;-70
2023/04/25 03:23:52;;;;;;;4.50;1.42;;;8.20;78.40;;;;;;5007178;28;20165;-70
2023/04/25 03:26:18;;;;;;;1.58;1.15;;;8.20;78.40;;;;;;5003964;28;20125;-70
2023/04/25 03:28:43;;;;;;;2.28;1.02;;;8.20;78.50;;;;;;5007633;28;20030;-70
2023/04/25 03:31:09;;;;;;;3.75;0.90;;;8.10;78.50;;;;;;5009291;28;20030;-70
2023/04/25 03:33:35;;;;;;;1.20;0.90;;;8.10;78.50;;;;;;5008538;28;20022;-70
2023/04/25 03:36:01;;;;;;;3.17;0.70;;;8.10;78.50;;;;;;5008174;28;20026;-70
2023/04/25 03:38:26;;;;;;;6.65;1.45;;;8.10;78.40;;;;;;5008343;28;20037;-70
2023/04/25 03:40:52;;;;;;;1.75;0.90;;;8.10;78.30;;;;;;5006423;28;20500;-70
2023/04/25 03:43:18;;;;;;;4.20;1.20;;;8.00;78.30;;;;;;5005004;28;20030;-70
2023/04/25 03:45:44;;;;;;;1.63;1.20;;;8.00;78.30;;;;;;5010184;28;20492;-70
2023/04/25 03:48:09;;;;;;;2.72;1.42;;;8.00;78.20;;;;;;4989789;28;20517;-70
2023/04/25 03:50:35;;;;;;;2.28;1.10;;;7.90;78.30;;;;;;5007225;28;20037;-70
2023/04/25 03:53:01;;;;;;;6.70;1.20;;;7.90;78.40;;;;;;5008264;28;20109;-70
2023/04/25 03:55:27;;;;;;;1.25;0.98;;;7.90;78.40;;;;;;4985205;28;20376;-70
2023/04/25 03:57:52;;;;;;;1.27;1.08;;;7.90;78.40;;;;;;4998472;28;20389;-70
2023/04/25 04:00:18;;;;;;;1.45;1.17;;;7.90;78.30;;;;;;5001961;28;20022;-70
2023/04/25 04:02:44;;;;;;;1.55;1.00;;;7.80;78.30;;;;;;5000758;28;20441;-70
2023/04/25 04:05:09;;;;;;;7.28;1.45;;;7.80;78.20;;;;;;5002328;28;20014;-69
2023/04/25 04:07:39;;;;;;;4.18;1.10;;;7.80;78.30;;;;;;4991186;28;20339;-69
2023/04/25 04:10:07;;;;;;;3.50;1.45;;;7.70;78.30;;;;;;4984261;28;20521;-69
2023/04/25 04:12:33;;;;;;;3.63;1.52;;;7.60;78.30;;;;;;4969667;28;20390;-70
2023/04/25 04:14:59;;;;;;;1.70;1.15;;;7.60;78.40;;;;;;4971203;28;20026;-69
2023/04/25 04:17:25;;;;;;;1.23;0.80;;;7.50;78.40;;;;;;4970599;28;20054;-69
2023/04/25 04:19:50;;;;;;;3.78;1.23;;;7.50;78.50;;;;;;4967266;28;20024;-69
2023/04/25 04:22:16;;;;;;;3.13;1.55;;;7.40;78.40;;;;;;4965371;28;20113;-69
2023/04/25 04:24:46;;;;;;;4.70;1.05;;;7.40;78.50;;;;;;4958212;28;20041;-69
2023/04/25 04:27:12;;;;;;;1.25;0.85;;;7.40;78.60;;;;;;4967010;28;20045;-69
2023/04/25 04:29:38;;;;;;;2.28;1.25;;;7.40;78.70;;;;;;4969684;28;20109;-69
2023/04/25 04:32:04;;;;;;;3.42;1.05;;;7.40;78.80;;;;;;4973496;28;20382;-69
2023/04/25 04:34:30;;;;;;;1.35;0.93;;;7.40;78.80;;;;;;4978465;28;20042;-69
2023/04/25 04:36:56;;;;;;;0.70;0.60;;;7.40;78.70;;;;;;4976093;28;20471;-69
2023/04/25 04:39:22;;;;;;;9.75;1.85;;;7.40;78.70;;;;;;4980184;28;20380;-69
2023/04/25 04:41:48;;;;;;;3.65;1.67;;;7.40;78.80;;;;;;4980689;28;20105;-69
2023/04/25 04:44:14;;;;;;;2.95;1.55;;;7.50;78.90;;;;;;4980498;28;20559;-69
2023/04/25 04:46:41;;;;;;;6.32;1.88;;;7.50;79.00;;;;;;4976265;28;20062;-69
2023/04/25 04:49:12;;;;;;;3.20;0.98;;;7.60;78.80;;;;;;4975715;28;20434;-69
2023/04/25 04:51:38;;;;;;;4.78;1.00;;;7.60;78.80;;;;;;4967847;28;20063;-69
2023/04/25 04:54:04;;;;;;;4.03;1.33;;;7.70;78.80;;;;;;4974694;28;20105;-69
2023/04/25 04:56:31;;;;;;;5.38;2.17;;;7.70;78.80;;;;;;4954164;28;20031;-69
2023/04/25 04:58:57;;;;;;;3.10;1.08;;;7.70;78.70;;;;;;4975981;28;20113;-69
2023/04/25 05:01:23;;;;;;;5.03;1.50;;;7.70;78.80;;;;;;4974790;28;20038;-69
2023/04/25 05:03:49;;;;;;;8.43;1.45;;;7.70;78.90;;;;;;4971749;28;20029;-70
2023/04/25 05:06:17;;;;;;;3.00;1.48;;;7.70;78.90;;;;;;4971898;28;20031;-70
2023/04/25 05:08:43;;;;;;;1.95;1.27;;;7.80;78.90;;;;;;4979302;28;20383;-71
2023/04/25 05:11:09;;;;;;;3.80;1.88;;;7.80;78.70;;;;;;4987675;28;20026;-71
2023/04/25 05:13:35;;;;;;;2.55;1.00;;;7.80;78.60;;;;;;5006043;28;20044;-71
2023/04/25 05:16:01;;;;;;;1.92;1.23;;;7.80;78.50;;;;;;5007600;28;20093;-72
2023/04/25 05:18:26;;;;;;;5.82;1.45;;;7.80;78.70;;;;;;5003771;28;20105;-71
2023/04/25 05:20:53;;;;;;;2.42;1.17;;;7.80;78.60;;;;;;4990478;28;20022;-72
2023/04/25 05:23:18;;;;;;;1.95;1.27;;;7.80;78.50;;;;;;5001685;28;20037;-70
2023/04/25 05:25:44;;;;;;;1.17;1.08;;;7.80;78.50;;;;;;5001659;28;20038;-70
2023/04/25 05:28:12;;;;;;;7.53;1.75;;;7.80;78.50;;;;;;5000623;28;20038;-70
2023/04/25 05:30:37;;;;;;;2.40;1.55;;;7.90;78.60;;;;;;5002227;28;20046;-71
2023/04/25 05:33:03;;;;;;;3.85;1.27;;;7.90;78.50;;;;;;4981961;28;20065;-69
2023/04/25 05:35:29;;;;;;;5.28;1.80;;;7.90;78.50;;;;;;4990235;28;20033;-69
2023/04/25 05:37:55;;;;;;;1.35;1.08;;;7.90;78.50;;;;;;5007081;28;20057;-69
2023/04/25 05:40:20;;;;;;;5.15;1.67;;;8.00;78.60;;;;;;4973084;28;20030;-70
2023/04/25 05:42:46;;;;;;;4.43;1.30;;;8.00;78.50;;;;;;5006723;28;20495;-69
2023/04/25 05:45:12;;;;;;;2.25;1.13;;;8.00;78.40;;;;;;5004748;28;20026;-69
2023/04/25 05:47:38;;;;;;;3.90;1.60;;;8.00;78.40;;;;;;5007596;28;20022;-69
2023/04/25 05:50:04;;;;;;;9.60;1.73;;;8.10;78.50;;;;;;4990789;28;20386;-70
2023/04/25 05:52:30;;;;;;;4.35;1.38;;;8.10;78.50;;;;;;5006226;28;20061;-69
2023/04/25 05:54:56;;;;;;;4.25;1.45;;;8.10;79.10;;;;;;5006201;28;20026;-69
2023/04/25 05:57:25;;;;;;;1.70;1.10;;;8.10;78.50;;;;;;5001922;28;20461;-69
2023/04/25 05:59:51;;;;;;;3.60;1.35;;;8.10;78.50;;;;;;5006257;28;20033;-69
2023/04/25 06:02:18;;;;;;;5.30;1.38;;;8.20;78.50;;;;;;4988456;28;20038;-71
2023/04/25 06:04:44;;;;;;;3.17;1.70;;;8.20;78.50;;;;;;5007438;28;20106;-69
2023/04/25 06:07:10;;;;;;;2.40;1.20;;;8.20;78.40;;;;;;4988405;28;20129;-71
2023/04/25 06:09:36;;;;;;;2.58;1.38;;;8.20;78.50;;;;;;5001626;28;20060;-71
2023/04/25 06:12:02;;;;;;;2.30;1.10;;;8.30;78.50;;;;;;5006964;28;20037;-69
2023/04/25 06:14:27;;;;;;;3.50;1.27;;;8.30;78.40;;;;;;5006909;28;20389;-71
2023/04/25 06:16:53;;;;;;;3.88;1.33;;;8.40;78.40;;;;;;5006009;28;20247;-69
2023/04/25 06:19:19;;;;;;;1.70;1.35;;;8.50;78.30;;;;;;4983865;28;20112;-69
2023/04/25 06:21:45;;;;;;;3.60;1.90;;;8.50;78.20;;;;;;5006330;28;20047;-69
2023/04/25 06:24:10;;;;;;;2.25;1.73;;;8.60;78.00;;;;;;4979013;28;20120;-69
2023/04/25 06:26:36;;;;;;;10.20;1.88;;;8.60;77.90;;;;;;4992849;28;20034;-69
2023/04/25 06:29:02;;;;;;;5.85;1.05;;;8.70;77.80;;;;;;4989307;28;20374;-69
2023/04/25 06:31:28;;;;;;;2.08;1.08;;;8.70;77.80;;;;;;5010566;28;20026;-69
2023/04/25 06:33:54;;;;;;;2.78;1.25;;;8.80;77.70;;;;;;5000614;28;20010;-69
2023/04/25 06:36:24;;;;;;;1.83;1.00;;;8.80;77.60;;;;;;5007537;28;20026;-69
2023/04/25 06:38:52;;;;;;;1.17;0.90;;;8.90;77.50;;;;;;5010215;28;20472;-69
2023/04/25 06:41:18;;;;;;;1.58;0.98;;;9.00;77.50;;;;;;5004348;28;20112;-69
2023/04/25 06:43:44;;;;;;;1.40;0.70;;;9.00;77.20;;;;;;5008077;28;20113;-69
2023/04/25 06:46:10;;;;;;;0.65;0.47;;;9.00;77.10;;;;;;5004428;28;20113;-69
2023/04/25 06:48:36;;;;;;;2.17;0.90;;;9.10;77.20;;;;;;5011042;28;20034;-69
2023/04/25 06:51:02;;;;;;;3.97;1.58;;;9.20;77.00;;;;;;5011752;28;20077;-69
2023/04/25 06:53:28;;;;;;;2.15;1.00;;;9.20;76.80;;;;;;4994102;28;20025;-69
2023/04/25 06:55:54;;;;;;;0.88;0.63;;;9.30;76.50;;;;;;5006573;28;20493;-69
2023/04/25 06:58:19;;;;;;;4.25;1.08;;;9.40;76.30;;;;;;5009994;28;20493;-71
2023/04/25 07:00:45;;;;;;;8.23;1.85;;;9.40;76.20;;;;;;4991730;28;20473;-70
2023/04/25 07:03:11;;;;;;;2.25;0.90;;;9.40;76.20;;;;;;5009739;28;20068;-71
2023/04/25 07:05:37;;;;;;;2.30;0.95;;;9.50;76.10;;;;;;5010274;28;20030;-71
2023/04/25 07:08:03;;;;;;;3.92;0.85;;;9.50;75.90;;;;;;5009787;28;20425;-72
2023/04/25 07:10:29;;;;;;;1.50;0.88;;;9.50;75.90;;;;;;5008512;28;20053;-72
2023/04/25 07:12:55;;;;;;;4.30;0.98;;;9.50;75.80;;;;;;5010766;28;20026;-72
2023/04/25 07:15:21;;;;;;;3.83;0.98;;;9.60;75.90;;;;;;5010778;28;20033;-72
2023/04/25 07:17:46;;;;;;;1.38;0.40;;;9.60;75.90;;;;;;5010048;28;20084;-71
2023/04/25 07:20:12;;;;;;;2.60;1.15;;;9.70;76.00;;;;;;5009681;28;20029;-70
2023/04/25 07:22:38;;;;;;;2.45;0.95;;;9.80;75.90;;;;;;5010431;28;20412;-72
2023/04/25 07:25:04;;;;;;;2.47;1.02;;;9.90;75.60;;;;;;5008651;28;20520;-72
2023/04/25 07:27:30;;;;;;;1.83;0.80;;;10.10;75.30;;;;;;4987061;28;20444;-71
2023/04/25 07:29:57;;;;;;;3.88;0.80;;;10.20;75.50;;;;;;5009784;28;20030;-72
2023/04/25 07:32:22;;;;;;;2.83;1.30;;;10.20;74.60;;;;;;5008936;28;20022;-73
2023/04/25 07:34:48;;;;;;;1.73;1.02;;;10.20;74.40;;;;;;5009971;28;20020;-72
2023/04/25 07:37:15;;;;;;;3.53;1.52;;;10.40;74.40;;;;;;5007358;28;20400;-72
2023/04/25 07:39:41;;;;;;;0.75;0.60;;;10.60;74.20;;;;;;5007824;28;20036;-72
2023/04/25 07:42:08;;;;;;;1.58;0.68;;;10.80;74.00;;;;;;5006500;28;20041;-72
2023/04/25 07:44:38;;;;;;;2.85;1.02;;;11.00;73.50;;;;;;5007968;28;20030;-72
2023/04/25 07:47:08;;;;;;;20.10;1.25;;;11.00;73.10;;;;;;5009294;28;20030;-73
2023/04/25 07:49:35;;;;;;;1.92;1.15;;;11.00;72.30;;;;;;5009267;28;20409;-73
2023/04/25 07:52:01;;;;;;;4.00;1.33;;;10.90;71.80;;;;;;5008594;28;20102;-71
2023/04/25 07:54:27;;;;;;;3.35;0.98;;;10.70;72.30;;;;;;5009365;28;20062;-70
2023/04/25 07:56:53;;;;;;;2.28;0.75;;;10.70;72.50;;;;;;5007569;28;20061;-72
2023/04/25 07:59:19;;;;;;;3.03;1.05;;;10.70;72.60;;;;;;4988711;28;20048;-71
2023/04/25 08:01:44;;;;;;;1.48;0.82;;;10.70;72.40;;;;;;5006592;28;20030;-71
2023/04/25 08:04:11;;;;;;;0.55;0.55;;;10.80;71.90;;;;;;4988984;28;20385;-71
2023/04/25 08:06:36;;;;;;;3.00;0.57;;;10.80;71.70;;;;;;4989791;28;20542;-70
2023/04/25 08:09:02;;;;;;;2.83;0.90;;;10.80;70.90;;;;;;4982515;28;20141;-71
2023/04/25 08:11:29;;;;;;;3.30;0.77;;;10.80;70.50;;;;;;4968817;28;20035;-71
2023/04/25 08:13:54;;;;;;;2.05;1.15;;;10.80;69.30;;;;;;4968537;28;20071;-71
2023/04/25 08:16:20;;;;;;;2.92;1.27;;;10.80;68.40;;;;;;4969291;28;20062;-70
2023/04/25 08:18:46;;;;;;;0.68;0.60;;;10.70;67.50;;;;;;4968042;28;20054;-70
2023/04/25 08:21:12;;;;;;;4.95;1.02;;;10.80;67.70;;;;;;4969167;28;20039;-70
2023/04/25 08:23:38;;;;;;;12.30;0.88;;;10.90;66.50;;;;;;4969246;28;20039;-69
2023/04/25 08:26:04;;;;;;;2.45;0.82;;;10.90;64.40;;;;;;4965317;28;20694;-70
2023/04/25 08:28:31;;;;;;;2.58;1.35;;;11.00;64.20;;;;;;4948785;28;20478;-70
2023/04/25 08:30:57;;;;;;;1.17;0.63;;;11.10;63.80;;;;;;4968072;28;20452;-71
2023/04/25 08:33:22;;;;;;;0.85;0.47;;;11.10;63.50;;;;;;4967568;28;20130;-69
2023/04/25 08:35:48;;;;;;;1.02;0.70;;;11.20;63.40;;;;;;4965262;28;20024;-71
2023/04/25 08:38:14;;;;;;;3.88;0.80;;;11.20;63.10;;;;;;4967580;28;20031;-71
2023/04/25 08:40:40;;;;;;;2.35;0.73;;;11.30;63.10;;;;;;4960697;28;20085;-71
2023/04/25 08:43:11;;;;;;;0.55;0.40;;;11.30;63.10;;;;;;4968068;28;20161;-70
2023/04/25 08:45:42;;;;;;;1.70;0.40;;;11.20;63.50;;;;;;4960545;28;20038;-70
2023/04/25 08:48:13;;;;;;;1.85;0.43;;;11.20;64.50;;;;;;4962366;28;20106;-69
2023/04/25 08:51:00;;;;;;;2.80;0.82;;;11.20;63.90;;;;;;4958781;28;20622;-69
2023/04/25 08:53:27;;;;;;;0.35;0.30;;;11.30;64.20;;;;;;4969155;28;20407;-70
2023/04/25 08:55:58;;;;;;;2.95;0.75;;;11.30;63.70;;;;;;4971872;28;20018;-69
2023/04/25 08:58:24;;;;;;;0.55;0.30;;;11.30;63.80;;;;;;4965922;28;20042;-69
2023/04/25 09:00:51;;;;;;;0.73;0.65;;;11.20;64.40;;;;;;4962875;28;20034;-71
2023/04/25 09:03:17;;;;;;;3.13;0.30;;;11.30;64.70;;;;;;4963387;28;20122;-71
2023/04/25 09:05:44;;;;;;;3.13;0.40;;;11.30;64.90;;;;;;4964370;28;20049;-71
2023/04/25 09:08:10;;;;;;;0.63;0.43;;;11.30;65.10;;;;;;4961814;28;20093;-71
2023/04/25 09:10:36;;;;;;;0.30;0.30;;;11.40;65.10;;;;;;4996047;28;20057;-71
2023/04/25 09:13:14;;;;;;;0.80;0.65;;;11.40;65.20;;;;;;5007387;28;20017;-71
2023/04/25 09:15:49;;;;;;;3.05;0.63;;;11.40;64.70;;;;;;5008005;28;20032;-70
2023/04/25 09:18:29;;;;;;;1.73;0.55;;;11.40;64.60;;;;;;5008668;28;20385;-69
2023/04/25 09:20:57;;;;;;;3.90;0.73;;;11.40;64.50;;;;;;5007721;28;20062;-70
2023/04/25 09:23:23;;;;;;;0.75;0.50;;;11.40;63.90;;;;;;5007780;28;20455;-70
2023/04/25 09:25:52;;;;;;;3.28;0.63;;;11.40;64.00;;;;;;5009712;28;20458;-69
2023/04/25 09:28:25;;;;;;;0.63;0.50;;;11.40;63.80;;;;;;4987512;28;20053;-69
2023/04/25 09:30:56;;;;;;;0.55;0.52;;;11.40;63.60;;;;;;4986137;28;20129;-69
2023/04/25 09:33:28;;;;;;;4.50;0.85;;;11.40;63.20;;;;;;5002860;28;20594;-69
2023/04/25 09:36:13;;;;;;;2.58;0.60;;;11.50;63.30;;;;;;5007483;28;20605;-70
2023/04/25 09:38:44;;;;;;;3.90;0.82;;;11.60;62.30;;;;;;5004748;28;20105;-70
2023/04/25 09:41:10;;;;;;;0.82;0.50;;;11.80;62.20;;;;;;4999122;28;20041;-70
2023/04/25 09:43:37;;;;;;;0.50;0.40;;;12.00;61.60;;;;;;5009564;28;20125;-70
2023/04/25 09:46:07;;;;;;;5.57;0.75;;;12.30;60.40;;;;;;4986280;28;20030;-70
2023/04/25 09:48:32;;;;;;;0.40;0.40;;;12.60;60.00;;;;;;5002483;28;20034;-70
2023/04/25 09:51:05;;;;;;;4.50;0.68;;;12.80;59.40;;;;;;5000450;28;20089;-71
2023/04/25 09:53:35;;;;;;;5.53;1.13;;;12.90;58.40;;;;;;5009368;28;20030;-71
2023/04/25 09:56:05;;;;;;;1.45;0.30;;;13.00;58.10;;;;;;5005593;28;20038;-71
2023/04/25 09:58:31;;;;;;;1.50;0.77;;;13.10;54.40;;;;;;5011354;28;20018;-71
2023/04/25 10:01:02;;;;;;;0.50;0.40;;;13.00;56.40;;;;;;5012469;28;20034;-71
2023/04/25 10:03:31;;;;;;;1.25;0.60;;;13.20;55.10;;;;;;5008182;28;20054;-71
2023/04/25 10:05:59;;;;;;;5.28;1.00;;;13.30;53.40;;;;;;5010069;28;20051;-71
2023/04/25 10:08:31;;;;;;;2.05;0.55;;;13.40;51.90;;;;;;5008888;28;20038;-71
2023/04/25 10:11:03;;;;;;;0.50;0.40;;;13.40;52.40;;;;;;4995001;28;20069;-71
2023/04/25 10:13:33;;;;;;;1.52;0.50;;;13.50;51.70;;;;;;5009534;28;20014;-69
2023/04/25 10:16:01;;;;;;;2.30;0.80;;;13.60;52.30;;;;;;5012071;28;20484;-70
2023/04/25 10:18:28;;;;;;;2.53;0.95;;;13.80;52.90;;;;;;5010085;28;20593;-70
2023/04/25 10:20:56;;;;;;;4.57;1.00;;;13.80;52.80;;;;;;4989589;28;20022;-71
2023/04/25 10:23:22;;;;;;;5.65;1.15;;;13.80;52.60;;;;;;5009948;28;20029;-71
2023/04/25 10:25:49;;;;;;;1.20;0.50;;;13.60;50.00;;;;;;5007577;28;20030;-70
2023/04/25 10:28:14;;;;;;;0.38;0.38;;;13.40;51.20;;;;;;5011687;28;20079;-70
2023/04/25 10:30:56;;;;;;;0.65;0.32;;;13.50;51.50;;;;;;4990529;28;20030;-71
2023/04/25 10:33:36;;;;;;;0.82;0.30;;;13.80;50.50;;;;;;5005041;28;20361;-70
2023/04/25 10:36:13;;;;;;;0.40;0.40;;;13.80;50.30;;;;;;5002097;28;20893;-71
2023/04/25 10:38:40;;;;;;;1.13;0.50;;;13.80;50.20;;;;;;5006772;28;20477;-73
2023/04/25 10:41:09;;;;;;;0.88;0.47;;;13.40;50.60;;;;;;4993464;28;20041;-72
2023/04/25 10:43:42;;;;;;;2.40;0.85;;;13.10;53.50;;;;;;5011955;28;20036;-72
2023/04/25 10:46:25;;;;;;;2.30;0.90;;;12.70;55.20;;;;;;5001263;28;20081;-72
2023/04/25 10:48:56;;;;;;;2.47;0.43;;;12.30;56.80;;;;;;5007135;28;20388;-72
2023/04/25 10:51:24;;;;;;;0.85;0.57;;;12.00;58.20;;;;;;5011200;28;20110;-72
2023/04/25 10:53:55;;;;;;;1.52;0.50;;;11.90;58.60;;;;;;5003104;28;20038;-72
2023/04/25 10:56:22;;;;;;;1.03;0.43;;;12.00;59.00;;;;;;5007190;28;20762;-71
2023/04/25 10:58:49;;;;;;;1.65;0.70;;;12.10;59.20;;;;;;4991875;28;20285;-71
2023/04/25 11:01:19;;;;;;;1.55;0.60;;;12.20;58.90;;;;;;5011212;28;20117;-71
2023/04/25 11:03:45;;;;;;;1.92;0.50;;;12.40;58.50;;;;;;5007316;28;20072;-70
2023/04/25 11:06:31;;;;;;;1.17;0.40;;;12.60;58.50;;;;;;5010002;28;20025;-71
2023/04/25 11:09:00;;;;;;;2.55;0.50;;;12.80;57.90;;;;;;5005859;28;20539;-71
2023/04/25 11:11:26;;;;;;;0.28;0.25;;;12.90;57.60;;;;;;5010042;28;20033;-71
2023/04/25 11:13:51;;;;;;;1.65;0.75;;;13.10;57.00;;;;;;5008237;28;20022;-71
2023/04/25 11:16:18;;;;;;;0.77;0.52;;;13.20;56.50;;;;;;4983665;28;20028;-71
2023/04/25 11:18:44;;;;;;;0.50;0.50;;;13.40;56.40;;;;;;5008627;28;20026;-71
2023/04/25 11:21:11;;;;;;;0.35;0.35;;;13.60;54.80;;;;;;5009935;28;20033;-72
2023/04/25 11:23:37;;;;;;;0.43;0.35;;;13.70;54.50;;;;;;4992008;28;20060;-69
2023/04/25 11:26:03;;;;;;;1.55;0.38;;;14.00;55.20;;;;;;5009038;28;20054;-71
2023/04/25 11:28:30;;;;;;;2.55;0.50;;;14.40;54.00;;;;;;5011223;28;20029;-72
2023/04/25 11:30:56;;;;;;;2.60;1.00;;;14.60;52.40;;;;;;4991024;28;20041;-71
2023/04/25 11:33:26;;;;;;;1.92;0.22;;;14.50;49.80;;;;;;5010085;28;20034;-71
2023/04/25 11:35:55;;;;;;;0.30;0.30;;;14.30;50.30;;;;;;5010155;28;20053;-69
2023/04/25 11:38:21;;;;;;;0.40;0.30;;;14.20;49.50;;;;;;5009551;28;20036;-70
2023/04/25 11:40:51;;;;;;;0.50;0.50;;;14.30;49.80;;;;;;5007413;28;20433;-70
2023/04/25 11:43:19;;;;;;;1.63;0.30;;;14.50;46.90;;;;;;5007614;28;20100;-70
2023/04/25 11:45:49;;;;;;;3.25;0.32;;;14.50;47.50;;;;;;5009872;28;20038;-70
2023/04/25 11:48:15;;;;;;;0.70;0.30;;;14.80;47.50;;;;;;5008346;28;20030;-70
2023/04/25 11:50:41;;;;;;;0.50;0.30;;;15.10;46.40;;;;;;4990507;28;20124;-70
2023/04/25 11:53:08;;;;;;;1.55;0.77;;;15.40;46.60;;;;;;5009237;28;20200;-71
2023/04/25 11:55:35;;;;;;;0.55;0.45;;;15.70;45.10;;;;;;5007531;28;20149;-69
2023/04/25 11:58:02;;;;;;;0.40;0.40;;;15.50;44.50;;;;;;4989006;28;20022;-70
2023/04/25 12:00:27;;;;;;;0.98;0.30;;;15.40;44.90;;;;;;5007591;28;20026;-73
2023/04/25 12:02:54;;;;;;;0.75;0.40;;;15.50;44.70;;;;;;5004845;28;20095;-70
2023/04/25 12:05:24;;;;;;;0.63;0.43;;;15.60;45.10;;;;;;5006287;28;20029;-72
2023/04/25 12:07:50;;;;;;;0.30;0.30;;;15.80;44.60;;;;;;4988615;28;20135;-72
2023/04/25 12:10:17;;;;;;;1.95;0.40;;;15.70;42.70;;;;;;5000687;28;20646;-72
2023/04/25 12:12:45;;;;;;;1.25;0.95;;;15.50;43.80;;;;;;5006202;28;20036;-70
2023/04/25 12:15:22;;;;;;;1.15;0.65;;;15.30;43.70;;;;;;4986031;28;20183;-70
2023/04/25 12:17:50;;;;;;;4.20;0.50;;;14.90;45.60;;;;;;5004683;28;20022;-71
2023/04/25 12:20:19;;;;;;;0.30;0.30;;;14.50;47.60;;;;;;5007128;28;20038;-72
2023/04/25 12:22:48;;;;;;;0.50;0.50;;;14.00;49.40;;;;;;4980309;28;20524;-72
2023/04/25 12:25:41;;;;;;;0.30;0.30;;;13.60;51.60;;;;;;5013827;28;20120;-72
2023/04/25 12:28:14;;;;;;;0.90;0.77;;;13.30;53.50;;;;;;5002579;28;20389;-70
2023/04/25 12:31:06;;;;;;;0.28;0.20;;;12.90;53.70;;;;;;5003610;28;20022;-70
2023/04/25 12:33:36;;;;;;;0.70;0.40;;;12.80;54.40;;;;;;4985191;28;20489;-72
2023/04/25 12:36:08;;;;;;;1.00;0.28;;;12.50;55.10;;;;;;5002512;28;20018;-70
2023/04/25 12:38:41;;;;;;;0.30;0.30;;;12.40;54.40;;;;;;5010760;28;20022;-71
2023/04/25 12:41:08;;;;;;;0.30;0.20;;;12.40;54.50;;;;;;5004012;28;20032;-71
2023/04/25 12:43:34;;;;;;;2.88;0.68;;;12.50;54.60;;;;;;4998586;28;20035;-72
2023/04/25 12:46:00;;;;;;;3.00;0.63;;;12.60;54.10;;;;;;4999473;28;20366;-72
2023/04/25 12:48:26;;;;;;;6.32;0.77;;;12.70;53.10;;;;;;4990395;28;20087;-71
2023/04/25 12:50:52;;;;;;;1.13;0.57;;;12.70;52.50;;;;;;4989827;28;20345;-71
2023/04/25 12:53:23;;;;;;;0.73;0.63;;;12.60;52.80;;;;;;4984218;28;20019;-70